Terminal Aerodrome Forecast
Issued by NWS

Home | Current Version | Previous Version | Text Only | Print | Product List | Glossary On
Versions: 1 2 3 4 5 6 7 8 9 10 11 12 13 14 15 16 17
338
FTUS43 KICT 211740
TAFRSL
TAF
KRSL 211740Z 2118/2218 19022G30KT P6SM FEW050 FEW250
     FM220000 18019G28KT P6SM VCTS FEW070CB SCT200
     FM220200 18018KT P6SM FEW070 SCT200
     FM220600 18013KT P6SM SCT250=

USA.gov is the U.S. government's official web portal to all federal, state and local government web resources and services.